createdAt,value
2023-03-17T12:07:37.054Z,1.6
2023-03-17T12:12:36.358Z,1.2
2023-03-17T12:17:35.718Z,1
2023-03-17T12:22:35.117Z,1.5
2023-03-17T12:27:34.487Z,0.8
2023-03-17T12:32:33.884Z,0.9
2023-03-17T12:37:33.141Z,1.3
2023-03-17T12:42:32.453Z,1
2023-03-17T12:47:31.846Z,5.8
2023-03-17T12:52:31.220Z,1.4
2023-03-17T12:57:30.533Z,1.3
2023-03-17T13:02:29.904Z,0.7
2023-03-17T13:07:29.242Z,1.3
2023-03-17T13:12:28.602Z,1.6
2023-03-17T13:17:27.963Z,0.9
2023-03-17T13:22:27.364Z,1
2023-03-17T13:27:26.694Z,1.4
2023-03-17T13:32:26.204Z,1.1
2023-03-17T13:37:25.299Z,1.3
2023-03-17T13:42:24.617Z,1.4
2023-03-17T13:47:23.984Z,1.1
2023-03-17T13:52:23.317Z,1.7
2023-03-17T13:57:22.636Z,1.2
2023-03-17T14:02:21.966Z,1.4
2023-03-17T14:07:21.268Z,1.7
2023-03-17T14:12:20.625Z,2.2
2023-03-17T14:17:19.958Z,1.3
2023-03-17T14:22:19.301Z,1.5
2023-03-17T14:27:18.626Z,1.3
2023-03-17T14:32:17.928Z,0.9
2023-03-17T14:37:17.294Z,1.3
2023-03-17T14:42:16.609Z,0.9
2023-03-17T14:47:15.954Z,1.5
2023-03-17T14:52:15.303Z,1.1
2023-03-17T14:57:14.670Z,1.1
2023-03-17T15:02:14.014Z,1.4
2023-03-17T15:07:13.345Z,4.2
2023-03-17T15:12:12.697Z,2.2
2023-03-17T15:17:12.050Z,1
2023-03-17T15:22:11.350Z,1.2
2023-03-17T15:27:10.680Z,6.5
2023-03-17T15:32:09.980Z,1.7
2023-03-17T15:37:09.315Z,2.9
2023-03-17T15:42:08.670Z,2.2
2023-03-17T15:47:07.974Z,0.6
2023-03-17T15:52:07.301Z,1.8
2023-03-17T15:57:06.671Z,1.4
2023-03-17T16:02:06.066Z,2.8
2023-03-17T16:07:05.302Z,5.3
2023-03-17T16:12:04.645Z,5.6
2023-03-17T16:51:59.306Z,2.7
2023-03-17T16:56:58.604Z,7.3
2023-03-17T17:01:57.952Z,13.8
2023-03-17T17:06:57.254Z,7.8
2023-03-17T17:11:56.588Z,3.7
2023-03-17T17:16:55.854Z,8.8
2023-03-17T17:21:55.131Z,5.6
2023-03-17T17:26:54.356Z,19.7
2023-03-17T17:31:53.697Z,23.2
2023-03-17T17:36:52.906Z,23
2023-03-17T17:41:52.153Z,11.6
2023-03-17T17:46:51.445Z,13.4
2023-03-17T17:56:49.905Z,20.1
2023-03-17T18:01:49.159Z,21.6
2023-03-17T18:06:48.362Z,17
2023-03-17T18:11:47.586Z,21.7
2023-03-17T18:16:46.825Z,26.7
2023-03-17T18:21:46.087Z,26.4
2023-03-17T18:26:45.218Z,30.6
2023-03-17T18:31:44.528Z,24.7
2023-03-17T18:36:43.632Z,25.8
2023-03-17T18:41:42.847Z,28.2
2023-03-17T18:46:42.080Z,25.9
2023-03-17T18:51:41.224Z,23.5
2023-03-17T18:56:40.457Z,24.3
2023-03-17T19:01:39.630Z,23
2023-03-17T19:06:38.852Z,20.6
2023-03-17T19:11:38.054Z,21.3
2023-03-17T19:16:37.254Z,25.2
2023-03-17T19:21:36.356Z,22.2
2023-03-17T19:31:34.779Z,24.4
2023-03-17T19:36:33.923Z,26
2023-03-17T19:41:33.163Z,27.1
2023-03-17T19:46:32.401Z,25.3
2023-03-17T19:51:31.548Z,28.6
2023-03-17T19:56:30.620Z,26.6
2023-03-17T20:01:29.845Z,29
2023-03-17T20:06:28.974Z,35.3
2023-03-17T20:11:28.157Z,38.2
2023-03-17T20:16:27.348Z,43.9
2023-03-17T20:21:26.530Z,42.6
2023-03-17T20:26:25.624Z,41.7
2023-03-17T20:31:24.836Z,39.6
2023-03-17T20:36:23.931Z,47
2023-03-17T20:41:23.040Z,45.2
2023-03-17T20:46:22.187Z,54
2023-03-17T20:51:21.299Z,54.1
2023-03-17T20:56:20.442Z,49.7
2023-03-17T21:01:21.129Z,50.4
2023-03-17T21:06:18.673Z,45.5
2023-03-17T21:11:17.834Z,43.6
2023-03-17T21:16:16.986Z,51.3
2023-03-17T21:21:16.117Z,47.6
2023-03-17T21:26:15.261Z,49.6
2023-03-17T21:31:14.407Z,47.1
2023-03-17T21:36:13.483Z,52.8
2023-03-17T21:41:12.602Z,54.7
2023-03-17T21:46:11.858Z,58.8
2023-03-17T21:51:10.849Z,56.8
2023-03-17T21:56:12.342Z,54.8
2023-03-17T22:01:09.198Z,50.5
2023-03-17T22:06:08.289Z,52.3
2023-03-17T22:11:07.365Z,53.5
2023-03-17T22:16:06.572Z,49.1
2023-03-17T22:21:05.630Z,47.1
2023-03-17T22:26:04.675Z,49.6
2023-03-17T22:31:03.786Z,46.3
2023-03-17T22:36:03.112Z,45
2023-03-17T22:41:02.059Z,41.4
2023-03-17T22:46:01.187Z,41.3
2023-03-17T22:51:00.222Z,42.9
2023-03-17T22:55:59.318Z,37.9
2023-03-17T23:00:58.509Z,34
2023-03-17T23:05:57.494Z,36
2023-03-17T23:10:56.774Z,35.5
2023-03-17T23:15:55.711Z,35
2023-03-17T23:20:54.762Z,35.3
2023-03-17T23:25:53.847Z,32.9
2023-03-17T23:30:52.956Z,27.8
2023-03-17T23:35:52.006Z,30.7
2023-03-17T23:40:51.097Z,29
2023-03-17T23:45:50.251Z,30.1
2023-03-17T23:50:49.238Z,31.9
2023-03-17T23:55:48.269Z,30.7
